sensor_id;sensor_type;location;lat;lon;timestamp;P1;durP1;ratioP1;P2;durP2;ratioP2
68479;SDS011;55469;48.934;12.050;2023-02-01T00:00:09;4.72;;;2.90;;
68479;SDS011;55469;48.934;12.050;2023-02-01T00:02:36;4.88;;;3.28;;
68479;SDS011;55469;48.934;12.050;2023-02-01T00:05:05;4.47;;;2.90;;
68479;SDS011;55469;48.934;12.050;2023-02-01T00:07:33;5.80;;;3.33;;
68479;SDS011;55469;48.934;12.050;2023-02-01T00:10:00;6.07;;;3.10;;
68479;SDS011;55469;48.934;12.050;2023-02-01T00:12:25;7.03;;;3.40;;
68479;SDS011;55469;48.934;12.050;2023-02-01T00:14:51;4.93;;;3.00;;
68479;SDS011;55469;48.934;12.050;2023-02-01T00:17:17;5.63;;;2.90;;
68479;SDS011;55469;48.934;12.050;2023-02-01T00:19:43;5.00;;;2.88;;
68479;SDS011;55469;48.934;12.050;2023-02-01T00:22:08;4.68;;;2.90;;
68479;SDS011;55469;48.934;12.050;2023-02-01T00:24:34;5.05;;;2.95;;
68479;SDS011;55469;48.934;12.050;2023-02-01T00:27:00;4.90;;;2.80;;
68479;SDS011;55469;48.934;12.050;2023-02-01T00:29:25;4.18;;;2.90;;
68479;SDS011;55469;48.934;12.050;2023-02-01T00:31:51;4.40;;;3.03;;
68479;SDS011;55469;48.934;12.050;2023-02-01T00:34:17;5.72;;;3.05;;
68479;SDS011;55469;48.934;12.050;2023-02-01T00:36:44;5.70;;;3.15;;
68479;SDS011;55469;48.934;12.050;2023-02-01T00:39:11;4.47;;;3.05;;
68479;SDS011;55469;48.934;12.050;2023-02-01T00:41:36;4.28;;;2.67;;
68479;SDS011;55469;48.934;12.050;2023-02-01T00:44:02;4.32;;;2.63;;
68479;SDS011;55469;48.934;12.050;2023-02-01T00:46:29;5.82;;;3.10;;
68479;SDS011;55469;48.934;12.050;2023-02-01T00:48:55;4.40;;;2.95;;
68479;SDS011;55469;48.934;12.050;2023-02-01T00:51:22;5.53;;;3.00;;
68479;SDS011;55469;48.934;12.050;2023-02-01T00:53:53;6.05;;;3.10;;
68479;SDS011;55469;48.934;12.050;2023-02-01T00:56:20;4.82;;;2.95;;
68479;SDS011;55469;48.934;12.050;2023-02-01T00:58:46;5.75;;;3.25;;
68479;SDS011;55469;48.934;12.050;2023-02-01T01:01:17;4.57;;;2.97;;
68479;SDS011;55469;48.934;12.050;2023-02-01T01:03:48;4.40;;;2.95;;
68479;SDS011;55469;48.934;12.050;2023-02-01T01:06:21;4.40;;;2.97;;
68479;SDS011;55469;48.934;12.050;2023-02-01T01:08:51;5.82;;;3.63;;
68479;SDS011;55469;48.934;12.050;2023-02-01T01:11:19;5.38;;;3.17;;
68479;SDS011;55469;48.934;12.050;2023-02-01T01:13:49;6.10;;;3.03;;
68479;SDS011;55469;48.934;12.050;2023-02-01T01:16:16;4.57;;;3.00;;
68479;SDS011;55469;48.934;12.050;2023-02-01T01:18:43;4.80;;;2.95;;
68479;SDS011;55469;48.934;12.050;2023-02-01T01:21:09;4.45;;;2.80;;
68479;SDS011;55469;48.934;12.050;2023-02-01T01:23:38;5.72;;;3.10;;
68479;SDS011;55469;48.934;12.050;2023-02-01T01:26:15;4.35;;;2.92;;
68479;SDS011;55469;48.934;12.050;2023-02-01T01:28:44;5.65;;;3.35;;
68479;SDS011;55469;48.934;12.050;2023-02-01T01:31:11;4.82;;;2.78;;
68479;SDS011;55469;48.934;12.050;2023-02-01T01:33:39;4.22;;;3.30;;
68479;SDS011;55469;48.934;12.050;2023-02-01T01:36:06;6.80;;;3.35;;
68479;SDS011;55469;48.934;12.050;2023-02-01T01:38:37;5.13;;;3.17;;
68479;SDS011;55469;48.934;12.050;2023-02-01T01:41:04;6.05;;;3.05;;
68479;SDS011;55469;48.934;12.050;2023-02-01T01:46:20;4.82;;;3.05;;
68479;SDS011;55469;48.934;12.050;2023-02-01T01:51:44;4.45;;;3.20;;
68479;SDS011;55469;48.934;12.050;2023-02-01T01:54:17;5.65;;;3.00;;
68479;SDS011;55469;48.934;12.050;2023-02-01T01:57:06;4.80;;;3.00;;
68479;SDS011;55469;48.934;12.050;2023-02-01T01:59:40;4.78;;;2.80;;
68479;SDS011;55469;48.934;12.050;2023-02-01T02:02:08;3.78;;;2.88;;
68479;SDS011;55469;48.934;12.050;2023-02-01T02:04:35;3.90;;;2.67;;
68479;SDS011;55469;48.934;12.050;2023-02-01T02:07:03;5.97;;;3.35;;
68479;SDS011;55469;48.934;12.050;2023-02-01T02:09:34;4.63;;;3.10;;
68479;SDS011;55469;48.934;12.050;2023-02-01T02:12:00;5.45;;;2.97;;
68479;SDS011;55469;48.934;12.050;2023-02-01T02:14:26;4.47;;;2.80;;
68479;SDS011;55469;48.934;12.050;2023-02-01T02:16:56;5.30;;;3.10;;
68479;SDS011;55469;48.934;12.050;2023-02-01T02:42:46;5.25;;;2.80;;
68479;SDS011;55469;48.934;12.050;2023-02-01T02:46:00;3.42;;;2.72;;
68479;SDS011;55469;48.934;12.050;2023-02-01T02:49:02;3.35;;;2.60;;
68479;SDS011;55469;48.934;12.050;2023-02-01T02:51:41;4.40;;;2.85;;
68479;SDS011;55469;48.934;12.050;2023-02-01T02:54:36;5.22;;;2.70;;
68479;SDS011;55469;48.934;12.050;2023-02-01T02:57:16;6.00;;;3.15;;
68479;SDS011;55469;48.934;12.050;2023-02-01T03:00:11;6.20;;;3.10;;
68479;SDS011;55469;48.934;12.050;2023-02-01T03:03:00;4.43;;;3.00;;
68479;SDS011;55469;48.934;12.050;2023-02-01T03:05:45;4.32;;;2.88;;
68479;SDS011;55469;48.934;12.050;2023-02-01T03:08:16;4.55;;;2.78;;
68479;SDS011;55469;48.934;12.050;2023-02-01T03:21:45;3.55;;;2.70;;
68479;SDS011;55469;48.934;12.050;2023-02-01T03:24:25;4.85;;;2.80;;
68479;SDS011;55469;48.934;12.050;2023-02-01T03:27:20;3.42;;;2.40;;
68479;SDS011;55469;48.934;12.050;2023-02-01T03:30:59;4.47;;;2.60;;
68479;SDS011;55469;48.934;12.050;2023-02-01T03:33:00;4.70;;;2.63;;
68479;SDS011;55469;48.934;12.050;2023-02-01T03:35:35;4.07;;;2.72;;
68479;SDS011;55469;48.934;12.050;2023-02-01T03:38:30;4.22;;;2.60;;
68479;SDS011;55469;48.934;12.050;2023-02-01T03:41:50;3.22;;;2.30;;
68479;SDS011;55469;48.934;12.050;2023-02-01T03:44:23;4.95;;;2.90;;
68479;SDS011;55469;48.934;12.050;2023-02-01T03:47:26;4.07;;;2.90;;
68479;SDS011;55469;48.934;12.050;2023-02-01T03:49:58;3.38;;;2.53;;
68479;SDS011;55469;48.934;12.050;2023-02-01T03:52:32;4.43;;;2.70;;
68479;SDS011;55469;48.934;12.050;2023-02-01T03:55:09;3.92;;;2.50;;
68479;SDS011;55469;48.934;12.050;2023-02-01T03:57:39;3.97;;;2.40;;
68479;SDS011;55469;48.934;12.050;2023-02-01T04:00:20;4.10;;;2.60;;
68479;SDS011;55469;48.934;12.050;2023-02-01T04:02:49;3.17;;;2.30;;
68479;SDS011;55469;48.934;12.050;2023-02-01T04:05:16;4.03;;;2.60;;
68479;SDS011;55469;48.934;12.050;2023-02-01T04:07:42;3.50;;;2.30;;
68479;SDS011;55469;48.934;12.050;2023-02-01T04:10:08;4.38;;;2.10;;
68479;SDS011;55469;48.934;12.050;2023-02-01T04:12:35;3.28;;;2.58;;
68479;SDS011;55469;48.934;12.050;2023-02-01T04:15:01;3.83;;;2.50;;
68479;SDS011;55469;48.934;12.050;2023-02-01T04:17:28;4.00;;;2.47;;
68479;SDS011;55469;48.934;12.050;2023-02-01T04:19:54;3.60;;;2.30;;
68479;SDS011;55469;48.934;12.050;2023-02-01T04:22:19;3.28;;;2.22;;
68479;SDS011;55469;48.934;12.050;2023-02-01T04:24:45;4.82;;;2.65;;
68479;SDS011;55469;48.934;12.050;2023-02-01T04:27:11;3.42;;;2.30;;
68479;SDS011;55469;48.934;12.050;2023-02-01T04:29:37;3.15;;;2.20;;
68479;SDS011;55469;48.934;12.050;2023-02-01T04:32:03;3.35;;;2.13;;
68479;SDS011;55469;48.934;12.050;2023-02-01T04:34:30;3.45;;;2.35;;
68479;SDS011;55469;48.934;12.050;2023-02-01T04:36:56;3.33;;;2.30;;
68479;SDS011;55469;48.934;12.050;2023-02-01T04:39:22;4.20;;;2.33;;
68479;SDS011;55469;48.934;12.050;2023-02-01T04:41:47;2.50;;;2.05;;
68479;SDS011;55469;48.934;12.050;2023-02-01T04:44:17;3.55;;;2.25;;
68479;SDS011;55469;48.934;12.050;2023-02-01T04:46:44;3.78;;;2.70;;
68479;SDS011;55469;48.934;12.050;2023-02-01T04:49:11;3.13;;;2.15;;
68479;SDS011;55469;48.934;12.050;2023-02-01T04:51:39;3.63;;;2.60;;
68479;SDS011;55469;48.934;12.050;2023-02-01T04:54:06;3.75;;;2.30;;
68479;SDS011;55469;48.934;12.050;2023-02-01T04:56:32;3.47;;;2.20;;
68479;SDS011;55469;48.934;12.050;2023-02-01T04:58:59;3.92;;;2.42;;
68479;SDS011;55469;48.934;12.050;2023-02-01T05:01:27;4.32;;;2.42;;
68479;SDS011;55469;48.934;12.050;2023-02-01T05:03:53;3.88;;;2.40;;
68479;SDS011;55469;48.934;12.050;2023-02-01T05:06:19;2.95;;;2.13;;
68479;SDS011;55469;48.934;12.050;2023-02-01T05:08:48;2.50;;;2.08;;
68479;SDS011;55469;48.934;12.050;2023-02-01T05:11:14;2.40;;;1.80;;
68479;SDS011;55469;48.934;12.050;2023-02-01T05:13:58;4.15;;;2.45;;
68479;SDS011;55469;48.934;12.050;2023-02-01T05:16:25;4.22;;;2.00;;
68479;SDS011;55469;48.934;12.050;2023-02-01T05:18:51;3.17;;;2.00;;
68479;SDS011;55469;48.934;12.050;2023-02-01T05:21:17;3.13;;;2.00;;
68479;SDS011;55469;48.934;12.050;2023-02-01T05:23:43;4.15;;;1.90;;
68479;SDS011;55469;48.934;12.050;2023-02-01T05:26:36;2.47;;;2.00;;
68479;SDS011;55469;48.934;12.050;2023-02-01T05:29:03;3.03;;;1.90;;
68479;SDS011;55469;48.934;12.050;2023-02-01T05:31:29;2.97;;;1.98;;
68479;SDS011;55469;48.934;12.050;2023-02-01T05:33:55;2.95;;;1.90;;
68479;SDS011;55469;48.934;12.050;2023-02-01T05:36:21;3.35;;;2.00;;
68479;SDS011;55469;48.934;12.050;2023-02-01T05:38:47;2.78;;;2.08;;
68479;SDS011;55469;48.934;12.050;2023-02-01T05:41:13;3.50;;;2.20;;
68479;SDS011;55469;48.934;12.050;2023-02-01T05:43:38;2.40;;;1.90;;
68479;SDS011;55469;48.934;12.050;2023-02-01T05:46:04;3.40;;;2.20;;
68479;SDS011;55469;48.934;12.050;2023-02-01T05:48:30;3.03;;;2.00;;
68479;SDS011;55469;48.934;12.050;2023-02-01T05:50:55;2.83;;;1.90;;
68479;SDS011;55469;48.934;12.050;2023-02-01T05:53:21;3.40;;;2.00;;
68479;SDS011;55469;48.934;12.050;2023-02-01T05:55:47;5.13;;;2.08;;
68479;SDS011;55469;48.934;12.050;2023-02-01T05:58:12;2.80;;;1.73;;
68479;SDS011;55469;48.934;12.050;2023-02-01T06:00:38;2.72;;;1.95;;
68479;SDS011;55469;48.934;12.050;2023-02-01T06:03:05;3.22;;;2.00;;
68479;SDS011;55469;48.934;12.050;2023-02-01T06:05:31;3.17;;;2.22;;
68479;SDS011;55469;48.934;12.050;2023-02-01T06:07:57;2.55;;;1.88;;
68479;SDS011;55469;48.934;12.050;2023-02-01T06:10:23;3.55;;;2.08;;
68479;SDS011;55469;48.934;12.050;2023-02-01T06:12:48;2.80;;;1.80;;
68479;SDS011;55469;48.934;12.050;2023-02-01T06:15:14;3.10;;;2.17;;
68479;SDS011;55469;48.934;12.050;2023-02-01T06:17:41;3.55;;;2.28;;
68479;SDS011;55469;48.934;12.050;2023-02-01T06:20:09;2.42;;;2.05;;
68479;SDS011;55469;48.934;12.050;2023-02-01T06:22:37;3.50;;;1.88;;
68479;SDS011;55469;48.934;12.050;2023-02-01T06:25:04;3.92;;;1.90;;
68479;SDS011;55469;48.934;12.050;2023-02-01T06:27:33;2.38;;;2.10;;
68479;SDS011;55469;48.934;12.050;2023-02-01T06:29:59;2.83;;;2.05;;
68479;SDS011;55469;48.934;12.050;2023-02-01T06:32:25;2.92;;;2.00;;
68479;SDS011;55469;48.934;12.050;2023-02-01T06:34:51;4.00;;;1.98;;
68479;SDS011;55469;48.934;12.050;2023-02-01T06:37:17;3.33;;;2.10;;
68479;SDS011;55469;48.934;12.050;2023-02-01T06:39:44;2.28;;;1.90;;
68479;SDS011;55469;48.934;12.050;2023-02-01T06:42:10;3.00;;;2.10;;
68479;SDS011;55469;48.934;12.050;2023-02-01T06:44:35;3.85;;;2.25;;
68479;SDS011;55469;48.934;12.050;2023-02-01T06:47:02;2.72;;;1.90;;
68479;SDS011;55469;48.934;12.050;2023-02-01T06:49:29;2.55;;;1.90;;
68479;SDS011;55469;48.934;12.050;2023-02-01T06:51:54;2.78;;;1.83;;
68479;SDS011;55469;48.934;12.050;2023-02-01T06:54:20;3.65;;;2.30;;
68479;SDS011;55469;48.934;12.050;2023-02-01T06:56:46;3.15;;;2.03;;
68479;SDS011;55469;48.934;12.050;2023-02-01T06:59:11;2.90;;;2.03;;
68479;SDS011;55469;48.934;12.050;2023-02-01T07:01:37;2.28;;;1.92;;
68479;SDS011;55469;48.934;12.050;2023-02-01T07:04:03;3.30;;;2.10;;
68479;SDS011;55469;48.934;12.050;2023-02-01T07:06:29;3.25;;;2.00;;
68479;SDS011;55469;48.934;12.050;2023-02-01T07:08:55;2.97;;;1.80;;
68479;SDS011;55469;48.934;12.050;2023-02-01T07:11:22;2.58;;;1.98;;
68479;SDS011;55469;48.934;12.050;2023-02-01T07:13:48;3.45;;;2.20;;
68479;SDS011;55469;48.934;12.050;2023-02-01T07:16:15;2.85;;;2.20;;
68479;SDS011;55469;48.934;12.050;2023-02-01T07:18:44;2.67;;;2.00;;
68479;SDS011;55469;48.934;12.050;2023-02-01T07:21:10;3.38;;;2.13;;
68479;SDS011;55469;48.934;12.050;2023-02-01T07:23:37;2.08;;;1.85;;
68479;SDS011;55469;48.934;12.050;2023-02-01T07:26:04;2.28;;;1.90;;
68479;SDS011;55469;48.934;12.050;2023-02-01T07:28:33;2.97;;;2.15;;
68479;SDS011;55469;48.934;12.050;2023-02-01T07:33:48;2.97;;;2.00;;
68479;SDS011;55469;48.934;12.050;2023-02-01T07:36:17;3.22;;;2.10;;
68479;SDS011;55469;48.934;12.050;2023-02-01T07:38:43;3.53;;;2.22;;
68479;SDS011;55469;48.934;12.050;2023-02-01T07:41:11;2.42;;;1.90;;
68479;SDS011;55469;48.934;12.050;2023-02-01T07:43:38;3.17;;;2.33;;
68479;SDS011;55469;48.934;12.050;2023-02-01T07:46:03;2.67;;;1.98;;
68479;SDS011;55469;48.934;12.050;2023-02-01T07:48:30;2.33;;;1.88;;
68479;SDS011;55469;48.934;12.050;2023-02-01T07:51:00;2.88;;;2.22;;
68479;SDS011;55469;48.934;12.050;2023-02-01T07:53:33;2.22;;;1.70;;
68479;SDS011;55469;48.934;12.050;2023-02-01T07:56:00;2.35;;;1.75;;
68479;SDS011;55469;48.934;12.050;2023-02-01T07:58:26;4.72;;;2.35;;
68479;SDS011;55469;48.934;12.050;2023-02-01T08:00:52;3.20;;;2.40;;
68479;SDS011;55469;48.934;12.050;2023-02-01T08:03:37;3.20;;;2.20;;
68479;SDS011;55469;48.934;12.050;2023-02-01T08:06:03;3.47;;;2.55;;
68479;SDS011;55469;48.934;12.050;2023-02-01T08:08:29;3.58;;;2.40;;
68479;SDS011;55469;48.934;12.050;2023-02-01T08:10:59;3.17;;;1.98;;
68479;SDS011;55469;48.934;12.050;2023-02-01T08:13:26;3.92;;;2.10;;
68479;SDS011;55469;48.934;12.050;2023-02-01T08:15:52;3.55;;;2.35;;
68479;SDS011;55469;48.934;12.050;2023-02-01T08:18:24;4.55;;;2.38;;
68479;SDS011;55469;48.934;12.050;2023-02-01T08:20:50;2.83;;;2.00;;
68479;SDS011;55469;48.934;12.050;2023-02-01T08:23:16;3.42;;;2.30;;
68479;SDS011;55469;48.934;12.050;2023-02-01T08:25:42;2.67;;;1.80;;
68479;SDS011;55469;48.934;12.050;2023-02-01T08:28:09;2.80;;;2.22;;
68479;SDS011;55469;48.934;12.050;2023-02-01T08:30:36;3.25;;;2.17;;
68479;SDS011;55469;48.934;12.050;2023-02-01T08:33:09;2.58;;;2.05;;
68479;SDS011;55469;48.934;12.050;2023-02-01T08:35:35;3.13;;;2.03;;
68479;SDS011;55469;48.934;12.050;2023-02-01T08:38:01;3.28;;;2.05;;
68479;SDS011;55469;48.934;12.050;2023-02-01T08:40:27;3.60;;;2.35;;
68479;SDS011;55469;48.934;12.050;2023-02-01T08:42:54;3.47;;;2.25;;
68479;SDS011;55469;48.934;12.050;2023-02-01T08:45:24;3.20;;;2.30;;
68479;SDS011;55469;48.934;12.050;2023-02-01T08:47:53;3.03;;;2.20;;
68479;SDS011;55469;48.934;12.050;2023-02-01T08:50:19;2.85;;;2.00;;
68479;SDS011;55469;48.934;12.050;2023-02-01T08:52:46;2.55;;;1.95;;
68479;SDS011;55469;48.934;12.050;2023-02-01T08:55:12;2.45;;;1.90;;
68479;SDS011;55469;48.934;12.050;2023-02-01T08:57:39;3.85;;;2.20;;
68479;SDS011;55469;48.934;12.050;2023-02-01T09:00:07;3.17;;;2.08;;
68479;SDS011;55469;48.934;12.050;2023-02-01T09:02:40;2.33;;;1.73;;
68479;SDS011;55469;48.934;12.050;2023-02-01T09:05:06;2.83;;;1.80;;
68479;SDS011;55469;48.934;12.050;2023-02-01T09:07:32;2.42;;;1.90;;
68479;SDS011;55469;48.934;12.050;2023-02-01T09:09:59;2.63;;;2.05;;
68479;SDS011;55469;48.934;12.050;2023-02-01T09:12:26;2.85;;;2.10;;
68479;SDS011;55469;48.934;12.050;2023-02-01T09:14:54;3.55;;;2.03;;
68479;SDS011;55469;48.934;12.050;2023-02-01T09:17:21;3.03;;;2.00;;
68479;SDS011;55469;48.934;12.050;2023-02-01T09:19:47;2.47;;;1.90;;
68479;SDS011;55469;48.934;12.050;2023-02-01T09:22:14;2.75;;;2.13;;
68479;SDS011;55469;48.934;12.050;2023-02-01T09:24:41;2.53;;;1.95;;
68479;SDS011;55469;48.934;12.050;2023-02-01T09:27:07;2.67;;;1.88;;
68479;SDS011;55469;48.934;12.050;2023-02-01T09:29:32;2.88;;;1.77;;
68479;SDS011;55469;48.934;12.050;2023-02-01T09:31:58;1.85;;;1.60;;
68479;SDS011;55469;48.934;12.050;2023-02-01T09:34:24;2.17;;;1.90;;
68479;SDS011;55469;48.934;12.050;2023-02-01T09:36:50;3.45;;;2.38;;
68479;SDS011;55469;48.934;12.050;2023-02-01T09:39:15;2.72;;;1.90;;
68479;SDS011;55469;48.934;12.050;2023-02-01T09:41:47;3.20;;;1.90;;
68479;SDS011;55469;48.934;12.050;2023-02-01T09:47:23;3.00;;;2.08;;
68479;SDS011;55469;48.934;12.050;2023-02-01T09:49:55;2.55;;;1.92;;
68479;SDS011;55469;48.934;12.050;2023-02-01T09:52:43;2.60;;;1.67;;
68479;SDS011;55469;48.934;12.050;2023-02-01T09:58:01;1.90;;;1.65;;
68479;SDS011;55469;48.934;12.050;2023-02-01T10:00:35;2.05;;;1.80;;
68479;SDS011;55469;48.934;12.050;2023-02-01T10:03:04;3.60;;;2.03;;
68479;SDS011;55469;48.934;12.050;2023-02-01T10:05:37;2.75;;;1.85;;
68479;SDS011;55469;48.934;12.050;2023-02-01T10:18:18;3.20;;;2.20;;
68479;SDS011;55469;48.934;12.050;2023-02-01T10:27:01;3.13;;;1.85;;
68479;SDS011;55469;48.934;12.050;2023-02-01T10:29:48;3.20;;;2.00;;
68479;SDS011;55469;48.934;12.050;2023-02-01T10:32:22;2.97;;;1.98;;
68479;SDS011;55469;48.934;12.050;2023-02-01T10:34:55;2.72;;;1.90;;
68479;SDS011;55469;48.934;12.050;2023-02-01T10:37:29;3.13;;;2.10;;
68479;SDS011;55469;48.934;12.050;2023-02-01T10:39:57;2.40;;;2.08;;
68479;SDS011;55469;48.934;12.050;2023-02-01T10:42:30;2.90;;;1.83;;
68479;SDS011;55469;48.934;12.050;2023-02-01T10:44:57;3.40;;;2.08;;
68479;SDS011;55469;48.934;12.050;2023-02-01T10:47:24;4.20;;;2.38;;
68479;SDS011;55469;48.934;12.050;2023-02-01T10:52:47;2.65;;;2.13;;
68479;SDS011;55469;48.934;12.050;2023-02-01T10:58:19;3.15;;;1.85;;
68479;SDS011;55469;48.934;12.050;2023-02-01T11:00:53;4.70;;;2.27;;
68479;SDS011;55469;48.934;12.050;2023-02-01T11:03:33;3.50;;;2.17;;
68479;SDS011;55469;48.934;12.050;2023-02-01T11:11:31;3.65;;;2.25;;
68479;SDS011;55469;48.934;12.050;2023-02-01T11:14:10;3.40;;;1.92;;
68479;SDS011;55469;48.934;12.050;2023-02-01T11:16:40;3.15;;;1.92;;
68479;SDS011;55469;48.934;12.050;2023-02-01T11:19:15;3.22;;;2.00;;
68479;SDS011;55469;48.934;12.050;2023-02-01T11:21:42;3.08;;;2.08;;
68479;SDS011;55469;48.934;12.050;2023-02-01T11:26:58;4.70;;;2.15;;
68479;SDS011;55469;48.934;12.050;2023-02-01T11:29:28;4.05;;;2.00;;
68479;SDS011;55469;48.934;12.050;2023-02-01T11:32:01;3.95;;;1.98;;
68479;SDS011;55469;48.934;12.050;2023-02-01T11:34:31;3.60;;;2.17;;
68479;SDS011;55469;48.934;12.050;2023-02-01T11:37:10;4.72;;;2.20;;
68479;SDS011;55469;48.934;12.050;2023-02-01T11:40:00;4.28;;;2.00;;
68479;SDS011;55469;48.934;12.050;2023-02-01T11:42:59;3.80;;;2.00;;
68479;SDS011;55469;48.934;12.050;2023-02-01T11:45:53;4.15;;;1.88;;
68479;SDS011;55469;48.934;12.050;2023-02-01T11:48:33;3.87;;;1.90;;
68479;SDS011;55469;48.934;12.050;2023-02-01T12:03:15;3.40;;;1.80;;
68479;SDS011;55469;48.934;12.050;2023-02-01T12:11:35;4.03;;;2.00;;
68479;SDS011;55469;48.934;12.050;2023-02-01T12:14:28;3.22;;;1.90;;
68479;SDS011;55469;48.934;12.050;2023-02-01T12:17:47;4.32;;;1.90;;
68479;SDS011;55469;48.934;12.050;2023-02-01T12:32:40;2.15;;;1.92;;
68479;SDS011;55469;48.934;12.050;2023-02-01T12:41:25;2.15;;;1.73;;
68479;SDS011;55469;48.934;12.050;2023-02-01T12:44:08;4.20;;;2.00;;
68479;SDS011;55469;48.934;12.050;2023-02-01T12:46:52;2.95;;;2.00;;
68479;SDS011;55469;48.934;12.050;2023-02-01T12:58:08;6.60;;;2.30;;
68479;SDS011;55469;48.934;12.050;2023-02-01T13:00:59;4.90;;;1.90;;
68479;SDS011;55469;48.934;12.050;2023-02-01T13:03:34;3.35;;;1.77;;
68479;SDS011;55469;48.934;12.050;2023-02-01T13:06:05;3.95;;;2.00;;
68479;SDS011;55469;48.934;12.050;2023-02-01T13:11:20;4.30;;;1.98;;
68479;SDS011;55469;48.934;12.050;2023-02-01T13:13:56;3.28;;;1.73;;
68479;SDS011;55469;48.934;12.050;2023-02-01T13:16:40;3.60;;;2.10;;
68479;SDS011;55469;48.934;12.050;2023-02-01T13:19:17;4.47;;;2.00;;
68479;SDS011;55469;48.934;12.050;2023-02-01T13:24:59;4.28;;;1.90;;
68479;SDS011;55469;48.934;12.050;2023-02-01T13:27:30;3.53;;;2.00;;
68479;SDS011;55469;48.934;12.050;2023-02-01T13:29:58;2.88;;;2.00;;
68479;SDS011;55469;48.934;12.050;2023-02-01T13:44:29;4.28;;;2.20;;
68479;SDS011;55469;48.934;12.050;2023-02-01T13:47:12;5.28;;;2.10;;
68479;SDS011;55469;48.934;12.050;2023-02-01T13:49:48;3.17;;;2.17;;
68479;SDS011;55469;48.934;12.050;2023-02-01T13:55:28;4.85;;;2.00;;
68479;SDS011;55469;48.934;12.050;2023-02-01T13:58:21;4.03;;;1.90;;
68479;SDS011;55469;48.934;12.050;2023-02-01T14:01:32;3.92;;;2.42;;
68479;SDS011;55469;48.934;12.050;2023-02-01T14:03:46;3.65;;;2.10;;
68479;SDS011;55469;48.934;12.050;2023-02-01T14:16:41;4.43;;;2.00;;
68479;SDS011;55469;48.934;12.050;2023-02-01T14:19:28;5.32;;;2.20;;
68479;SDS011;55469;48.934;12.050;2023-02-01T14:22:00;3.15;;;1.77;;
68479;SDS011;55469;48.934;12.050;2023-02-01T14:24:49;3.35;;;2.00;;
68479;SDS011;55469;48.934;12.050;2023-02-01T14:27:21;5.88;;;2.00;;
68479;SDS011;55469;48.934;12.050;2023-02-01T14:29:56;4.60;;;2.20;;
68479;SDS011;55469;48.934;12.050;2023-02-01T14:32:35;4.00;;;2.35;;
68479;SDS011;55469;48.934;12.050;2023-02-01T14:35:07;4.53;;;2.20;;
68479;SDS011;55469;48.934;12.050;2023-02-01T14:37:50;3.67;;;2.00;;
68479;SDS011;55469;48.934;12.050;2023-02-01T14:40:24;3.30;;;2.00;;
68479;SDS011;55469;48.934;12.050;2023-02-01T14:42:53;4.63;;;1.75;;
68479;SDS011;55469;48.934;12.050;2023-02-01T14:47:52;3.35;;;2.00;;
68479;SDS011;55469;48.934;12.050;2023-02-01T14:55:35;4.60;;;1.88;;
68479;SDS011;55469;48.934;12.050;2023-02-01T15:01:39;2.30;;;1.92;;
68479;SDS011;55469;48.934;12.050;2023-02-01T15:04:16;3.65;;;2.00;;
68479;SDS011;55469;48.934;12.050;2023-02-01T15:06:56;4.53;;;2.00;;
68479;SDS011;55469;48.934;12.050;2023-02-01T15:12:05;3.63;;;1.85;;
68479;SDS011;55469;48.934;12.050;2023-02-01T15:14:46;4.05;;;2.03;;
68479;SDS011;55469;48.934;12.050;2023-02-01T15:17:30;4.25;;;2.10;;
68479;SDS011;55469;48.934;12.050;2023-02-01T15:22:40;4.65;;;2.00;;
68479;SDS011;55469;48.934;12.050;2023-02-01T15:25:20;6.45;;;2.35;;
68479;SDS011;55469;48.934;12.050;2023-02-01T15:27:53;5.63;;;2.15;;
68479;SDS011;55469;48.934;12.050;2023-02-01T15:30:24;5.85;;;2.40;;
68479;SDS011;55469;48.934;12.050;2023-02-01T15:33:15;4.95;;;2.00;;
68479;SDS011;55469;48.934;12.050;2023-02-01T15:41:12;5.18;;;2.22;;
68479;SDS011;55469;48.934;12.050;2023-02-01T15:43:45;4.68;;;2.85;;
68479;SDS011;55469;48.934;12.050;2023-02-01T15:46:22;9.75;;;3.00;;
68479;SDS011;55469;48.934;12.050;2023-02-01T15:49:00;5.30;;;2.33;;
68479;SDS011;55469;48.934;12.050;2023-02-01T15:51:27;8.18;;;2.30;;
68479;SDS011;55469;48.934;12.050;2023-02-01T15:54:01;7.07;;;2.45;;
68479;SDS011;55469;48.934;12.050;2023-02-01T15:56:37;6.22;;;2.70;;
68479;SDS011;55469;48.934;12.050;2023-02-01T15:59:15;5.90;;;2.30;;
68479;SDS011;55469;48.934;12.050;2023-02-01T16:01:44;6.65;;;2.50;;
68479;SDS011;55469;48.934;12.050;2023-02-01T16:04:18;8.57;;;2.90;;
68479;SDS011;55469;48.934;12.050;2023-02-01T16:06:53;8.43;;;2.30;;
68479;SDS011;55469;48.934;12.050;2023-02-01T16:09:22;4.53;;;2.60;;
68479;SDS011;55469;48.934;12.050;2023-02-01T16:11:56;5.13;;;2.25;;
68479;SDS011;55469;48.934;12.050;2023-02-01T16:14:28;4.18;;;2.35;;
68479;SDS011;55469;48.934;12.050;2023-02-01T16:16:55;7.53;;;2.50;;
68479;SDS011;55469;48.934;12.050;2023-02-01T16:19:22;4.57;;;1.92;;
68479;SDS011;55469;48.934;12.050;2023-02-01T16:21:52;5.40;;;2.22;;
68479;SDS011;55469;48.934;12.050;2023-02-01T16:24:20;5.72;;;1.88;;
68479;SDS011;55469;48.934;12.050;2023-02-01T16:26:48;4.32;;;2.30;;
68479;SDS011;55469;48.934;12.050;2023-02-01T16:29:13;5.63;;;2.20;;
68479;SDS011;55469;48.934;12.050;2023-02-01T16:31:40;3.30;;;2.00;;
68479;SDS011;55469;48.934;12.050;2023-02-01T16:34:06;5.85;;;1.92;;
68479;SDS011;55469;48.934;12.050;2023-02-01T16:36:40;2.50;;;2.00;;
68479;SDS011;55469;48.934;12.050;2023-02-01T16:39:07;4.43;;;2.08;;
68479;SDS011;55469;48.934;12.050;2023-02-01T16:41:36;8.18;;;2.17;;
68479;SDS011;55469;48.934;12.050;2023-02-01T16:44:03;7.43;;;2.00;;
68479;SDS011;55469;48.934;12.050;2023-02-01T16:46:29;6.72;;;1.88;;
68479;SDS011;55469;48.934;12.050;2023-02-01T16:49:00;5.75;;;2.40;;
68479;SDS011;55469;48.934;12.050;2023-02-01T16:51:27;7.25;;;2.10;;
68479;SDS011;55469;48.934;12.050;2023-02-01T16:53:57;6.35;;;2.20;;
68479;SDS011;55469;48.934;12.050;2023-02-01T16:56:33;4.97;;;1.60;;
68479;SDS011;55469;48.934;12.050;2023-02-01T16:59:00;4.55;;;2.28;;
68479;SDS011;55469;48.934;12.050;2023-02-01T17:01:26;4.30;;;1.90;;
68479;SDS011;55469;48.934;12.050;2023-02-01T17:03:53;5.15;;;1.98;;
68479;SDS011;55469;48.934;12.050;2023-02-01T17:06:19;3.45;;;2.10;;
68479;SDS011;55469;48.934;12.050;2023-02-01T17:08:53;6.60;;;2.10;;
68479;SDS011;55469;48.934;12.050;2023-02-01T17:11:22;3.15;;;1.88;;
68479;SDS011;55469;48.934;12.050;2023-02-01T17:13:48;4.75;;;1.90;;
68479;SDS011;55469;48.934;12.050;2023-02-01T17:18:43;5.90;;;2.47;;
68479;SDS011;55469;48.934;12.050;2023-02-01T17:21:15;3.75;;;1.98;;
68479;SDS011;55469;48.934;12.050;2023-02-01T17:23:41;7.03;;;2.00;;
68479;SDS011;55469;48.934;12.050;2023-02-01T17:26:08;4.78;;;1.98;;
68479;SDS011;55469;48.934;12.050;2023-02-01T17:28:35;4.88;;;2.35;;
68479;SDS011;55469;48.934;12.050;2023-02-01T17:31:00;4.63;;;2.15;;
68479;SDS011;55469;48.934;12.050;2023-02-01T17:33:30;5.28;;;2.10;;
68479;SDS011;55469;48.934;12.050;2023-02-01T17:35:59;5.60;;;1.63;;
68479;SDS011;55469;48.934;12.050;2023-02-01T17:38:26;4.50;;;2.03;;
68479;SDS011;55469;48.934;12.050;2023-02-01T17:40:52;4.85;;;1.85;;
68479;SDS011;55469;48.934;12.050;2023-02-01T17:43:21;5.22;;;1.60;;
68479;SDS011;55469;48.934;12.050;2023-02-01T17:45:50;5.72;;;1.70;;
68479;SDS011;55469;48.934;12.050;2023-02-01T17:48:30;3.08;;;1.80;;
68479;SDS011;55469;48.934;12.050;2023-02-01T17:50:56;6.22;;;1.95;;
68479;SDS011;55469;48.934;12.050;2023-02-01T17:53:26;4.38;;;1.90;;
68479;SDS011;55469;48.934;12.050;2023-02-01T17:55:53;3.95;;;1.90;;